Temp: 16.8°C   Hum: 69%
  Wind: 6.0mph   Dir: WSW (254°)
  Rain: 1.2mm Rate: 0.0mm/hr
  Pressure: 1017.8mb

Historic data

Bath Spa Weather Station Historical Data
Daily Summary for January 23, 2022 Units:  Metric    English   Both
Daily Weekly Monthly Yearly Custom
  High: Low: Average:
Temperature: 4.5 °C 3.2 °C 3.9 °C
Dew Point: 2.6 °C 0.9 °C 1.7 °C
Humidity: 88% 84% 85%
Wind Speed: 7.2km/h 0km/h 2.1km/h
Wind Gust: 16.1km/h - -
Wind- - SW
Pressure: 1037.8 hPa 1033.4 hPa -
Precipitation: 0 mm    
Historical Graphs
 
 
Tabular Data for January 23, 2022
Time Temperature Dew Point Pressure Wind Wind Speed Wind Gust Humidity Rainfall Rate (Hourly) solar
00:09 4.3 °C 2.5 °C 1037.8 hPa Calm     88% 0 mm 0 W/m2
00:14 4.3 °C 2.5 °C 1037.8 hPa Calm     88% 0 mm 0 W/m2
00:19 4.3 °C 2.5 °C 1037.8 hPa Calm     88% 0 mm 0 W/m2
00:24 4.3 °C 2.5 °C 1037.8 hPa Calm     88% 0 mm 0 W/m2
00:29 4.3 °C 2.5 °C 1037.8 hPa Calm     88% 0 mm 0 W/m2
00:34 4.3 °C 2.5 °C 1037.8 hPa Calm     88% 0 mm 0 W/m2
00:39 4.3 °C 2.5 °C 1037.8 hPa Calm     88% 0 mm 0 W/m2
00:44 4.3 °C 2.5 °C 1037.8 hPa Calm     88% 0 mm 0 W/m2
00:49 4.3 °C 2.5 °C 1037.8 hPa Calm     88% 0 mm 0 W/m2
00:54 4.3 °C 2.5 °C 1037.8 hPa Calm     88% 0 mm 0 W/m2
00:59 4.4 °C 2.6 °C 1037.5 hPa Calm     88% 0 mm 0 W/m2
01:04 4.3 °C 2.5 °C 1037.5 hPa Calm     88% 0 mm 0 W/m2
01:09 4.3 °C 2.5 °C 1037.5 hPa Calm     88% 0 mm 0 W/m2
01:14 4.3 °C 2.5 °C 1037.5 hPa WNW 0.6 km/h 3.2 km/h 88% 0 mm 0 W/m2
01:19 4.2 °C 2.4 °C 1037.5 hPa Calm   3.2 km/h 88% 0 mm 0 W/m2
01:24 4.3 °C 2.4 °C 1037.5 hPa Calm     87.4% 0 mm 0 W/m2
01:29 4.4 °C 2.4 °C 1037.5 hPa Calm     87% 0 mm 0 W/m2
01:34 4.4 °C 2.4 °C 1037.5 hPa Calm     87% 0 mm 0 W/m2
01:39 4.4 °C 2.4 °C 1037.5 hPa Calm     87% 0 mm 0 W/m2
01:44 4.5 °C 2.5 °C 1037.5 hPa Calm     87% 0 mm 0 W/m2
01:49 4.4 °C 2.4 °C 1037.5 hPa Calm     86.8% 0 mm 0 W/m2
01:54 4.4 °C 2.4 °C 1037.5 hPa Calm     87% 0 mm 0 W/m2
01:59 4.3 °C 2.3 °C 1037.1 hPa Calm     87% 0 mm 0 W/m2
02:04 4.4 °C 2.4 °C 1037.1 hPa Calm     86.8% 0 mm 0 W/m2
02:09 4.4 °C 2.3 °C 1037.1 hPa Calm     86.2% 0 mm 0 W/m2
02:14 4.4 °C 2.3 °C 1037.1 hPa Calm     86.2% 0 mm 0 W/m2
02:19 4.3 °C 2.2 °C 1037.1 hPa Calm     86% 0 mm 0 W/m2
02:24 4.3 °C 2.3 °C 1037.1 hPa Calm     87% 0 mm 0 W/m2
02:29 4.3 °C 2.3 °C 1037.1 hPa Calm     87% 0 mm 0 W/m2
02:34 4.3 °C 2.3 °C 1037.1 hPa Calm     87% 0 mm 0 W/m2
02:39 4.3 °C 2.3 °C 1037.1 hPa Calm     87% 0 mm 0 W/m2
02:44 4.3 °C 2.3 °C 1037.1 hPa Calm     87% 0 mm 0 W/m2
02:49 4.3 °C 2.3 °C 1037.1 hPa Calm     87% 0 mm 0 W/m2
02:54 4.3 °C 2.3 °C 1037.1 hPa Calm     87% 0 mm 0 W/m2
02:59 4.3 °C 2.3 °C 1037.1 hPa WNW 0.3 km/h 1.6 km/h 87% 0 mm 0 W/m2
03:04 4.2 °C 2.2 °C 1037.1 hPa Calm   3.2 km/h 86.8% 0 mm 0 W/m2
03:09 4.2 °C 2.1 °C 1036.8 hPa Calm     86% 0 mm 0 W/m2
03:14 4.2 °C 2.1 °C 1036.8 hPa Calm     86% 0 mm 0 W/m2
03:19 4.3 °C 2.2 °C 1036.8 hPa Calm     86% 0 mm 0 W/m2
03:24 4.3 °C 2.2 °C 1036.8 hPa Calm     86% 0 mm 0 W/m2
03:29 4.3 °C 2.2 °C 1036.8 hPa Calm   1.6 km/h 86% 0 mm 0 W/m2
03:34 4.3 °C 2.2 °C 1036.8 hPa Calm   1.6 km/h 86% 0 mm 0 W/m2
03:39 4.3 °C 2.2 °C 1036.8 hPa Calm   1.6 km/h 86% 0 mm 0 W/m2
03:44 4.3 °C 2.2 °C 1036.8 hPa Calm   3.2 km/h 86% 0 mm 0 W/m2
03:49 4.3 °C 2.2 °C 1036.8 hPa Calm     86% 0 mm 0 W/m2
03:54 4.3 °C 2.2 °C 1036.8 hPa Calm     86% 0 mm 0 W/m2
03:59 4.3 °C 2.2 °C 1036.8 hPa Calm   1.6 km/h 86% 0 mm 0 W/m2
04:04 4.3 °C 2.2 °C 1036.8 hPa Calm     86% 0 mm 0 W/m2
04:09 4.3 °C 2.2 °C 1036.8 hPa Calm     85.8% 0 mm 0 W/m2
04:14 4.3 °C 2 °C 1036.8 hPa Calm     85% 0 mm 0 W/m2
04:19 4.2 °C 1.9 °C 1036.8 hPa Calm   3.2 km/h 85% 0 mm 0 W/m2
04:24 4.2 °C 1.9 °C 1036.8 hPa Calm   3.2 km/h 85% 0 mm 0 W/m2
04:29 4.2 °C 1.9 °C 1036.8 hPa Calm     85% 0 mm 0 W/m2
04:34 4.2 °C 1.8 °C 1036.8 hPa Calm     85% 0 mm 0 W/m2
04:39 4.1 °C 1.8 °C 1036.8 hPa Calm   3.2 km/h 85% 0 mm 0 W/m2
04:44 4.1 °C 1.8 °C 1036.8 hPa WNW 0.3 km/h 3.2 km/h 85% 0 mm 0 W/m2
04:49 4.1 °C 1.8 °C 1036.8 hPa WNW 1.3 km/h 3.2 km/h 85% 0 mm 0 W/m2
04:54 4.1 °C 1.8 °C 1036.8 hPa WNW 1 km/h 4.8 km/h 85% 0 mm 0 W/m2
04:59 4.1 °C 1.7 °C 1036.5 hPa WNW 2.4 km/h 9.7 km/h 85% 0 mm 0 W/m2
05:04 4 °C 1.7 °C 1036.5 hPa WNW 1.9 km/h 8 km/h 85% 0 mm 0 W/m2
05:09 4 °C 1.7 °C 1036.5 hPa WNW 4.2 km/h 8 km/h 85% 0 mm 0 W/m2
05:14 4 °C 1.7 °C 1036.5 hPa West 3.9 km/h 8 km/h 85% 0 mm 0 W/m2
05:19 4.1 °C 1.6 °C 1036.5 hPa Calm   4.8 km/h 84.2% 0 mm 0 W/m2
05:24 4.1 °C 1.6 °C 1036.5 hPa West 0.6 km/h 3.2 km/h 84% 0 mm 0 W/m2
05:29 4 °C 1.5 °C 1036.5 hPa Calm   1.6 km/h 84% 0 mm 0 W/m2
05:34 4 °C 1.5 °C 1036.5 hPa West 1 km/h 3.2 km/h 84% 0 mm 0 W/m2
05:39 3.9 °C 1.4 °C 1036.5 hPa West 1 km/h 3.2 km/h 84% 0 mm 0 W/m2
05:44 3.9 °C 1.4 °C 1036.5 hPa West 3.4 km/h 9.7 km/h 84% 0 mm 0 W/m2
05:49 3.9 °C 1.4 °C 1036.5 hPa West 2.3 km/h 8 km/h 84% 0 mm 0 W/m2
05:54 3.9 °C 1.4 °C 1036.1 hPa West 2.7 km/h 8 km/h 84% 0 mm 0 W/m2
05:59 3.9 °C 1.4 °C 1036.1 hPa West 1.4 km/h 4.8 km/h 84% 0 mm 0 W/m2
06:04 3.9 °C 1.4 °C 1036.1 hPa West 3.2 km/h 6.4 km/h 84% 0 mm 0 W/m2
06:09 3.9 °C 1.4 °C 1036.1 hPa West 3.2 km/h 6.4 km/h 84% 0 mm 0 W/m2
06:14 3.9 °C 1.4 °C 1036.1 hPa West 4.5 km/h 9.7 km/h 84% 0 mm 0 W/m2
06:19 3.8 °C 1.3 °C 1036.1 hPa West 3.9 km/h 6.4 km/h 84% 0 mm 0 W/m2
06:24 3.8 °C 1.3 °C 1036.1 hPa West 3.2 km/h 6.4 km/h 84% 0 mm 0 W/m2
06:29 3.8 °C 1.3 °C 1036.1 hPa West 0.6 km/h 4.8 km/h 84% 0 mm 0 W/m2
06:34 3.8 °C 1.3 °C 1036.1 hPa West 1.9 km/h 4.8 km/h 84% 0 mm 0 W/m2
06:39 3.8 °C 1.3 °C 1036.1 hPa West 1.8 km/h 6.4 km/h 84% 0 mm 0 W/m2
06:44 3.7 °C 1.2 °C 1036.1 hPa West 2.6 km/h 4.8 km/h 84% 0 mm 0 W/m2
06:49 3.7 °C 1.2 °C 1036.1 hPa West 0.3 km/h 3.2 km/h 84% 0 mm 0 W/m2
06:54 3.7 °C 1.2 °C 1036.1 hPa West 1.6 km/h 4.8 km/h 84% 0 mm 0 W/m2
06:59 3.7 °C 1.2 °C 1036.1 hPa West 0.3 km/h 3.2 km/h 84% 0 mm 0 W/m2
07:04 3.7 °C 1.3 °C 1036.5 hPa West 1.6 km/h 6.4 km/h 84.2% 0 mm 0 W/m2
07:09 3.7 °C 1.4 °C 1036.5 hPa West 3.9 km/h 6.4 km/h 85% 0 mm 0 W/m2
07:14 3.7 °C 1.3 °C 1036.5 hPa West 5.5 km/h 11.3 km/h 85% 0 mm 0 W/m2
07:19 3.6 °C 1.2 °C 1036.5 hPa West 3.9 km/h 11.3 km/h 84.4% 0 mm 0 W/m2
07:24 3.6 °C 1.2 °C 1036.5 hPa West 7.2 km/h 11.3 km/h 84% 0 mm 0 W/m2
07:29 3.5 °C 1.1 °C 1036.5 hPa West 1.3 km/h 8 km/h 84% 0 mm 0 W/m2
07:34 3.6 °C 1.2 °C 1036.8 hPa West 5.1 km/h 9.7 km/h 84% 0 mm 0 W/m2
07:39 3.5 °C 1.1 °C 1036.8 hPa West 3.2 km/h 9.7 km/h 84% 0 mm 0 W/m2
07:44 3.5 °C 1.1 °C 1036.5 hPa West 0.3 km/h 4.8 km/h 84% 0 mm 0 W/m2
07:49 3.5 °C 1.1 °C 1036.5 hPa West 0.3 km/h 3.2 km/h 84.2% 0 mm 0 W/m2
07:54 3.5 °C 1.2 °C 1036.5 hPa West 3.4 km/h 6.4 km/h 85% 0 mm 0 W/m2
07:59 3.4 °C 1.2 °C 1036.5 hPa West 3.4 km/h 6.4 km/h 85% 0 mm 0 W/m2
08:03 3.4 °C 1.2 °C 1036.5 hPa West 1.6 km/h 4.8 km/h 85% 0 mm 0 W/m2
08:09 3.4 °C 1.1 °C 1036.5 hPa West 2.7 km/h 6.4 km/h 85% 0 mm 0 W/m2
08:14 3.5 °C 1.2 °C 1036.8 hPa West 2.1 km/h 4.8 km/h 85% 0 mm 0 W/m2
08:19 3.5 °C 1.2 °C 1036.8 hPa SSW 3.9 km/h 11.3 km/h 85% 0 mm 5 W/m2
08:24 3.4 °C 1.1 °C 1036.8 hPa SSW 0.6 km/h 4.8 km/h 85% 0 mm 5 W/m2
08:29 3.4 °C 1.1 °C 1036.8 hPa SSW 1.3 km/h 4.8 km/h 85% 0 mm 7 W/m2
08:34 3.4 °C 1.1 °C 1036.8 hPa SSW 2.4 km/h 8 km/h 85% 0 mm 9 W/m2
08:39 3.4 °C 1.1 °C 1036.8 hPa SSW 2.6 km/h 6.4 km/h 85% 0 mm 9 W/m2
08:44 3.4 °C 1.1 °C 1036.8 hPa SSW 3.9 km/h 8 km/h 85% 0 mm 11 W/m2
08:49 3.4 °C 1.1 °C 1036.8 hPa SSW 6.6 km/h 9.7 km/h 85% 0 mm 14 W/m2
08:54 3.4 °C 1.1 °C 1036.8 hPa SSW 4.5 km/h 8 km/h 85% 0 mm 16 W/m2
08:59 3.4 °C 1.1 °C 1036.8 hPa SSW 1.9 km/h 6.4 km/h 85% 0 mm 18 W/m2
09:04 3.4 °C 1.2 °C 1036.8 hPa SSW 0.3 km/h 3.2 km/h 85% 0 mm 16 W/m2
09:09 3.5 °C 1.2 °C 1036.8 hPa SSW 1.4 km/h 6.4 km/h 85% 0 mm 19 W/m2
09:14 3.4 °C 1.2 °C 1036.8 hPa SSW 4.7 km/h 9.7 km/h 85% 0 mm 21 W/m2
09:19 3.4 °C 1.1 °C 1036.8 hPa SSW 5 km/h 9.7 km/h 85% 0 mm 21 W/m2
09:24 3.4 °C 1.1 °C 1036.8 hPa SSW 5.1 km/h 9.7 km/h 85% 0 mm 23 W/m2
09:29 3.4 °C 1.1 °C 1036.8 hPa SSW 2.7 km/h 8 km/h 85% 0 mm 25 W/m2
09:34 3.4 °C 1.1 °C 1036.8 hPa SSW 4.3 km/h 9.7 km/h 85% 0 mm 25 W/m2
09:39 3.4 °C 1.1 °C 1036.8 hPa SSW 6.1 km/h 11.3 km/h 85% 0 mm 28 W/m2
09:44 3.4 °C 1.1 °C 1036.8 hPa SSW 3.9 km/h 6.4 km/h 85% 0 mm 28 W/m2
09:49 3.4 °C 1.1 °C 1036.8 hPa SSW 3.2 km/h 8 km/h 85% 0 mm 30 W/m2
09:54 3.4 °C 1.1 °C 1036.8 hPa SSW 5.8 km/h 9.7 km/h 85% 0 mm 33 W/m2
09:59 3.3 °C 1 °C 1036.8 hPa SSW 4.7 km/h 12.9 km/h 85% 0 mm 35 W/m2
10:04 3.3 °C 1 °C 1036.8 hPa SSW 5.1 km/h 9.7 km/h 85% 0 mm 37 W/m2
10:09 3.4 °C 1.1 °C 1036.8 hPa SSW 5.3 km/h 8 km/h 85% 0 mm 37 W/m2
10:14 3.4 °C 1.1 °C 1036.8 hPa SSW 3.2 km/h 8 km/h 85% 0 mm 42 W/m2
10:19 3.4 °C 1.1 °C 1036.8 hPa SSW 5.5 km/h 8 km/h 85% 0 mm 44 W/m2
10:24 3.3 °C 1 °C 1036.8 hPa SSW 6.4 km/h 12.9 km/h 85% 0 mm 47 W/m2
10:29 3.3 °C 1 °C 1036.8 hPa SSW 5.1 km/h 11.3 km/h 85% 0 mm 44 W/m2
10:34 3.3 °C 1 °C 1036.8 hPa SSW 5.3 km/h 12.9 km/h 85% 0 mm 44 W/m2
10:39 3.2 °C 0.9 °C 1036.8 hPa SSW 4.5 km/h 9.7 km/h 85% 0 mm 47 W/m2
10:44 3.3 °C 0.9 °C 1036.8 hPa SSW 3.5 km/h 6.4 km/h 85% 0 mm 49 W/m2
10:49 3.2 °C 0.9 °C 1036.8 hPa SSW 4.7 km/h 16.1 km/h 85% 0 mm 49 W/m2
10:54 3.2 °C 0.9 °C 1036.8 hPa SSW 5.1 km/h 11.3 km/h 85% 0 mm 47 W/m2
10:59 3.2 °C 0.9 °C 1036.5 hPa SSW 4 km/h 11.3 km/h 85% 0 mm 53 W/m2
11:04 3.3 °C 1 °C 1036.5 hPa SSW 4.5 km/h 9.7 km/h 85% 0 mm 60 W/m2
11:09 3.3 °C 1 °C 1036.5 hPa SSW 7.2 km/h 11.3 km/h 85% 0 mm 60 W/m2
11:14 3.3 °C 1 °C 1036.5 hPa SSW 4 km/h 8 km/h 85% 0 mm 60 W/m2
11:19 3.3 °C 1.1 °C 1036.5 hPa SSW 3.9 km/h 9.7 km/h 85% 0 mm 60 W/m2
11:24 3.4 °C 1.1 °C 1036.5 hPa SSW 7.2 km/h 14.5 km/h 85% 0 mm 63 W/m2
11:29 3.3 °C 1 °C 1036.5 hPa SSW 5.8 km/h 9.7 km/h 85% 0 mm 65 W/m2
11:34 3.3 °C 1 °C 1036.5 hPa SSW 6 km/h 11.3 km/h 85% 0 mm 63 W/m2
11:39 3.3 °C 1.1 °C 1036.5 hPa SSW 4 km/h 9.7 km/h 85% 0 mm 60 W/m2
11:44 3.4 °C 1.1 °C 1036.1 hPa SSW 4.3 km/h 8 km/h 85% 0 mm 56 W/m2
11:49 3.4 °C 1.1 °C 1036.1 hPa SSW 3.2 km/h 8 km/h 85% 0 mm 62 W/m2
11:54 3.4 °C 1.1 °C 1036.1 hPa SSW 2.4 km/h 6.4 km/h 85% 0 mm 60 W/m2
11:59 3.4 °C 1.1 °C 1036.1 hPa SSW 2.7 km/h 6.4 km/h 85% 0 mm 58 W/m2
12:04 3.5 °C 1.2 °C 1036.1 hPa SSW 3.9 km/h 8 km/h 85% 0 mm 58 W/m2
12:09 3.4 °C 1.1 °C 1036.1 hPa SSW 4.5 km/h 8 km/h 85% 0 mm 60 W/m2
12:14 3.4 °C 1.1 °C 1036.1 hPa SSW 2.3 km/h 8 km/h 85% 0 mm 58 W/m2
12:19 3.5 °C 1.2 °C 1036.1 hPa SSW 3.9 km/h 8 km/h 85% 0 mm 62 W/m2
12:24 3.5 °C 1.2 °C 1036.1 hPa SSW 3.4 km/h 8 km/h 85% 0 mm 60 W/m2
12:29 3.6 °C 1.3 °C 1036.1 hPa SSW 2.4 km/h 8 km/h 85% 0 mm 60 W/m2
12:34 3.6 °C 1.3 °C 1036.1 hPa SSW 1.9 km/h 6.4 km/h 85% 0 mm 62 W/m2
12:39 3.6 °C 1.3 °C 1035.8 hPa SSW 4.7 km/h 11.3 km/h 85% 0 mm 60 W/m2
12:44 3.6 °C 1.3 °C 1035.8 hPa SSW 6.6 km/h 11.3 km/h 85% 0 mm 62 W/m2
12:49 3.6 °C 1.2 °C 1035.8 hPa SSW 4.5 km/h 9.7 km/h 85% 0 mm 58 W/m2
12:54 3.6 °C 1.3 °C 1035.8 hPa SSW 2.1 km/h 9.7 km/h 85% 0 mm 63 W/m2
12:59 3.6 °C 1.3 °C 1035.4 hPa SSW 5.6 km/h 11.3 km/h 84.8% 0 mm 63 W/m2
13:04 3.4 °C 1.1 °C 1035.4 hPa SSW 1.9 km/h 8 km/h 84.6% 0 mm 62 W/m2
13:09 3.4 °C 1.2 °C 1035.4 hPa SSW 2.6 km/h 4.8 km/h 85% 0 mm 60 W/m2
13:14 3.6 °C 1.3 °C 1035.4 hPa SSW 1.8 km/h 6.4 km/h 85% 0 mm 60 W/m2
13:19 3.6 °C 1.3 °C 1035.4 hPa SSW 4.2 km/h 8 km/h 85% 0 mm 60 W/m2
13:24 3.6 °C 1.3 °C 1035.4 hPa SSW 3.9 km/h 8 km/h 85% 0 mm 60 W/m2
13:29 3.7 °C 1.4 °C 1035.4 hPa SSW 3.4 km/h 8 km/h 85% 0 mm 62 W/m2
13:34 3.7 °C 1.4 °C 1035.1 hPa SSW 4.5 km/h 8 km/h 85% 0 mm 56 W/m2
13:39 3.6 °C 1.2 °C 1035.1 hPa SSW 3.5 km/h 8 km/h 84.4% 0 mm 54 W/m2
13:44 3.6 °C 1.3 °C 1035.1 hPa SSW 4.3 km/h 8 km/h 85% 0 mm 49 W/m2
13:49 3.7 °C 1.3 °C 1035.1 hPa SSW 5.1 km/h 11.3 km/h 85% 0 mm 51 W/m2
13:54 3.7 °C 1.4 °C 1035.1 hPa SSW 5.3 km/h 11.3 km/h 85% 0 mm 47 W/m2
13:59 3.7 °C 1.3 °C 1034.8 hPa SSW 2.1 km/h 9.7 km/h 84.8% 0 mm 46 W/m2
14:04 3.7 °C 1.4 °C 1034.8 hPa SSW 1.9 km/h 4.8 km/h 85% 0 mm 44 W/m2
14:09 3.8 °C 1.4 °C 1034.8 hPa SSW 3.2 km/h 6.4 km/h 85% 0 mm 42 W/m2
14:14 3.8 °C 1.5 °C 1034.8 hPa SSW 4.3 km/h 9.7 km/h 85% 0 mm 44 W/m2
14:19 3.7 °C 1.3 °C 1034.8 hPa SSW 6.1 km/h 11.3 km/h 84.2% 0 mm 42 W/m2
14:24 3.7 °C 1.2 °C 1034.8 hPa SSW 4.8 km/h 8 km/h 84% 0 mm 40 W/m2
14:29 3.8 °C 1.3 °C 1034.4 hPa SSW 1.8 km/h 6.4 km/h 84.4% 0 mm 37 W/m2
14:34 3.8 °C 1.5 °C 1034.4 hPa SSW 3.2 km/h 6.4 km/h 85% 0 mm 35 W/m2
14:39 3.8 °C 1.4 °C 1034.4 hPa SSW 4.2 km/h 8 km/h 84.8% 0 mm 33 W/m2
14:44 3.8 °C 1.5 °C 1034.4 hPa SSW 5.6 km/h 9.7 km/h 85% 0 mm 35 W/m2
14:49 3.8 °C 1.5 °C 1034.4 hPa SSW 3.5 km/h 6.4 km/h 85% 0 mm 37 W/m2
14:54 3.8 °C 1.5 °C 1034.4 hPa SSW 2.1 km/h 6.4 km/h 85% 0 mm 35 W/m2
14:59 3.8 °C 1.4 °C 1034.4 hPa SSW 1.4 km/h 4.8 km/h 84.8% 0 mm 32 W/m2
15:04 3.9 °C 1.6 °C 1034.4 hPa SSW 0.8 km/h 4.8 km/h 85% 0 mm 28 W/m2
15:09 3.9 °C 1.4 °C 1034.4 hPa SSW 1.6 km/h 8 km/h 84.2% 0 mm 28 W/m2
15:14 3.8 °C 1.3 °C 1034.4 hPa SSW 4.8 km/h 9.7 km/h 84% 0 mm 26 W/m2
15:19 3.8 °C 1.4 °C 1034.1 hPa SSW 5.8 km/h 9.7 km/h 84.4% 0 mm 26 W/m2
15:23 3.8 °C 1.5 °C 1034.1 hPa SSW 4.3 km/h 8 km/h 85% 0 mm 26 W/m2
15:29 3.8 °C 1.5 °C 1034.1 hPa SSW 3.5 km/h 8 km/h 85% 0 mm 25 W/m2
15:34 3.8 °C 1.5 °C 1034.1 hPa SSW 1.4 km/h 6.4 km/h 85% 0 mm 23 W/m2
15:39 3.9 °C 1.6 °C 1034.1 hPa SSW 1.4 km/h 8 km/h 85% 0 mm 21 W/m2
15:44 3.9 °C 1.6 °C 1034.1 hPa SSW 2.9 km/h 8 km/h 85% 0 mm 19 W/m2
15:49 3.9 °C 1.6 °C 1034.1 hPa SSW 5.1 km/h 9.7 km/h 84.8% 0 mm 18 W/m2
15:54 3.8 °C 1.4 °C 1034.1 hPa SSW 4.5 km/h 9.7 km/h 84.6% 0 mm 16 W/m2
15:59 3.8 °C 1.3 °C 1034.1 hPa SSW 0.8 km/h 9.7 km/h 84% 0 mm 12 W/m2
16:04 3.8 °C 1.4 °C 1034.1 hPa SSW 0.6 km/h 4.8 km/h 84.6% 0 mm 11 W/m2
16:09 3.8 °C 1.3 °C 1034.1 hPa SSW 5 km/h 9.7 km/h 84% 0 mm 9 W/m2
16:14 3.9 °C 1.4 °C 1034.1 hPa SSW 2.1 km/h 8 km/h 84.2% 0 mm 7 W/m2
16:19 3.9 °C 1.5 °C 1034.1 hPa SSW 4.5 km/h 6.4 km/h 84.6% 0 mm 5 W/m2
16:24 3.9 °C 1.6 °C 1034.1 hPa SSW 2.9 km/h 6.4 km/h 85% 0 mm 5 W/m2
16:29 3.9 °C 1.6 °C 1034.1 hPa SSW 3.1 km/h 8 km/h 85% 0 mm 0 W/m2
16:34 3.9 °C 1.6 °C 1034.1 hPa SSW 3.2 km/h 6.4 km/h 85% 0 mm 0 W/m2
16:39 3.9 °C 1.6 °C 1034.1 hPa SSW 4.3 km/h 8 km/h 85% 0 mm 0 W/m2
16:44 3.9 °C 1.6 °C 1034.1 hPa SSW 3.4 km/h 8 km/h 85% 0 mm 0 W/m2
16:49 3.9 °C 1.6 °C 1034.1 hPa SSW 1.9 km/h 6.4 km/h 85% 0 mm 0 W/m2
16:54 4 °C 1.7 °C 1034.1 hPa SSW 1.8 km/h 3.2 km/h 85% 0 mm 0 W/m2
16:59 4 °C 1.7 °C 1034.1 hPa SSW 1.3 km/h 4.8 km/h 85% 0 mm 0 W/m2
17:04 3.9 °C 1.7 °C 1034.1 hPa SSW 4.7 km/h 11.3 km/h 85% 0 mm 0 W/m2
17:09 3.9 °C 1.6 °C 1034.1 hPa SSW 1.9 km/h 4.8 km/h 85% 0 mm 0 W/m2
17:14 3.9 °C 1.6 °C 1034.1 hPa SSW 2.1 km/h 6.4 km/h 85% 0 mm 0 W/m2
17:19 3.9 °C 1.6 °C 1034.1 hPa SSW 3.5 km/h 8 km/h 85% 0 mm 0 W/m2
17:24 3.9 °C 1.6 °C 1034.1 hPa SSW 0.8 km/h 6.4 km/h 85% 0 mm 0 W/m2
17:29 3.9 °C 1.6 °C 1034.1 hPa SSW 1.1 km/h 3.2 km/h 85% 0 mm 0 W/m2
17:34 3.9 °C 1.6 °C 1034.1 hPa SSW 1.1 km/h 3.2 km/h 85% 0 mm 0 W/m2
17:39 3.9 °C 1.7 °C 1034.1 hPa SSW 3.2 km/h 6.4 km/h 85% 0 mm 0 W/m2
17:44 3.9 °C 1.6 °C 1034.1 hPa SSW 0.6 km/h 3.2 km/h 85% 0 mm 0 W/m2
17:49 3.9 °C 1.7 °C 1034.1 hPa SSW 0.3 km/h 3.2 km/h 85% 0 mm 0 W/m2
17:54 4.1 °C 1.7 °C 1034.1 hPa SSW 0.3 km/h 3.2 km/h 85% 0 mm 0 W/m2
17:59 4 °C 1.7 °C 1034.1 hPa SSW 1 km/h 4.8 km/h 85% 0 mm 0 W/m2
18:04 4 °C 1.7 °C 1034.1 hPa Calm     85% 0 mm 0 W/m2
18:09 4.1 °C 1.8 °C 1034.1 hPa Calm     85% 0 mm 0 W/m2
18:14 4.1 °C 1.7 °C 1034.1 hPa Calm   1.6 km/h 85% 0 mm 0 W/m2
18:19 4.1 °C 1.8 °C 1034.1 hPa Calm   1.6 km/h 85% 0 mm 0 W/m2
18:24 4.1 °C 1.8 °C 1034.1 hPa Calm     85% 0 mm 0 W/m2
18:29 4.1 °C 1.8 °C 1034.1 hPa Calm   1.6 km/h 85% 0 mm 0 W/m2
18:34 4.1 °C 1.8 °C 1034.1 hPa Calm   1.6 km/h 85% 0 mm 0 W/m2
18:39 4.1 °C 1.8 °C 1034.1 hPa Calm     85% 0 mm 0 W/m2
18:44 4.1 °C 1.8 °C 1034.1 hPa Calm     85% 0 mm 0 W/m2
18:48 4.1 °C 1.8 °C 1034.1 hPa Calm     85% 0 mm 0 W/m2
18:53 4.1 °C 1.8 °C 1034.4 hPa Calm     85% 0 mm 0 W/m2
18:59 4.2 °C 2 °C 1034.1 hPa Calm     85.6% 0 mm 0 W/m2
19:04 4.2 °C 2.1 °C 1034.1 hPa Calm     86% 0 mm 0 W/m2
19:09 4.2 °C 2.1 °C 1034.1 hPa SSW 0.3 km/h 3.2 km/h 86% 0 mm 0 W/m2
19:14 4.2 °C 2.1 °C 1034.1 hPa Calm   3.2 km/h 86% 0 mm 0 W/m2
19:19 4.2 °C 2.1 °C 1034.1 hPa Calm     86% 0 mm 0 W/m2
19:24 4.2 °C 2.1 °C 1034.1 hPa SSW 0.6 km/h 3.2 km/h 86% 0 mm 0 W/m2
19:29 4.1 °C 2 °C 1034.1 hPa SSW 2.6 km/h 6.4 km/h 86% 0 mm 0 W/m2
19:34 4.1 °C 2 °C 1034.1 hPa SSW 2.6 km/h 4.8 km/h 86% 0 mm 0 W/m2
19:39 4.1 °C 2 °C 1034.1 hPa SSW 1 km/h 3.2 km/h 86% 0 mm 0 W/m2
19:44 4.2 °C 2.1 °C 1034.1 hPa SSW 2.3 km/h 4.8 km/h 86% 0 mm 0 W/m2
19:49 4.2 °C 2.1 °C 1034.1 hPa SSW 0.6 km/h 4.8 km/h 86% 0 mm 0 W/m2
19:54 4.2 °C 2.1 °C 1034.1 hPa Calm   4.8 km/h 86% 0 mm 0 W/m2
19:59 4.1 °C 2 °C 1034.1 hPa SSW 1.6 km/h 3.2 km/h 86% 0 mm 0 W/m2
20:04 4.2 °C 2.1 °C 1034.1 hPa SSW 2.6 km/h 6.4 km/h 86% 0 mm 0 W/m2
20:09 4.2 °C 2.1 °C 1034.1 hPa SSW 0.3 km/h 4.8 km/h 86% 0 mm 0 W/m2
20:14 4.1 °C 2 °C 1033.7 hPa SSW 1 km/h 4.8 km/h 86% 0 mm 0 W/m2
20:19 4.2 °C 2.1 °C 1033.7 hPa SSW 1.3 km/h 4.8 km/h 86% 0 mm 0 W/m2
20:24 4.2 °C 2.1 °C 1033.7 hPa Calm   1.6 km/h 86% 0 mm 0 W/m2
20:29 4.2 °C 2.1 °C 1033.7 hPa Calm   1.6 km/h 86% 0 mm 0 W/m2
20:34 4.2 °C 2.1 °C 1033.7 hPa Calm   1.6 km/h 86% 0 mm 0 W/m2
20:39 4.1 °C 2 °C 1033.7 hPa Calm     86% 0 mm 0 W/m2
20:44 4.1 °C 2 °C 1033.7 hPa Calm   3.2 km/h 86% 0 mm 0 W/m2
20:49 4.2 °C 2.1 °C 1033.7 hPa SSW 0.6 km/h 3.2 km/h 86% 0 mm 0 W/m2
20:54 4.2 °C 2.1 °C 1033.7 hPa SSW 1 km/h 3.2 km/h 86% 0 mm 0 W/m2
20:59 4.2 °C 2.1 °C 1033.7 hPa SSW 0.8 km/h 3.2 km/h 86% 0 mm 0 W/m2
21:04 4.2 °C 2.1 °C 1033.7 hPa SSW 1.8 km/h 4.8 km/h 86% 0 mm 0 W/m2
21:09 4.2 °C 2.1 °C 1033.7 hPa SSW 0.8 km/h 4.8 km/h 86% 0 mm 0 W/m2
21:14 4.2 °C 2.1 °C 1033.7 hPa SSW 0.3 km/h 1.6 km/h 86% 0 mm 0 W/m2
21:19 4.2 °C 2.1 °C 1033.7 hPa SSW 0.3 km/h 3.2 km/h 86% 0 mm 0 W/m2
21:24 4.2 °C 2.1 °C 1033.7 hPa SSW 2.7 km/h 4.8 km/h 86% 0 mm 0 W/m2
21:29 4.2 °C 2.1 °C 1033.7 hPa SSW 1.8 km/h 4.8 km/h 86% 0 mm 0 W/m2
21:34 4.2 °C 2.1 °C 1033.7 hPa SSW 1.9 km/h 4.8 km/h 86% 0 mm 0 W/m2
21:39 4.2 °C 2.1 °C 1033.7 hPa SSW 4.5 km/h 6.4 km/h 86% 0 mm 0 W/m2
21:44 4.2 °C 2.1 °C 1033.7 hPa SSW 1.1 km/h 6.4 km/h 86% 0 mm 0 W/m2
21:49 4.2 °C 2.1 °C 1033.7 hPa Calm   3.2 km/h 86% 0 mm 0 W/m2
21:54 4.2 °C 2.1 °C 1033.7 hPa SSW 1.8 km/h 6.4 km/h 86% 0 mm 0 W/m2
21:59 4.2 °C 2.2 °C 1033.7 hPa SSW 0.6 km/h 3.2 km/h 86% 0 mm 0 W/m2
22:04 4.2 °C 2.1 °C 1033.7 hPa SSW 1.9 km/h 4.8 km/h 86% 0 mm 0 W/m2
22:09 4.2 °C 2.1 °C 1033.7 hPa SSW 2.9 km/h 4.8 km/h 86% 0 mm 0 W/m2
22:14 4.2 °C 2.1 °C 1033.7 hPa SSW 0.6 km/h 4.8 km/h 86% 0 mm 0 W/m2
22:19 4.2 °C 2.2 °C 1033.7 hPa SSW 0.6 km/h 3.2 km/h 86% 0 mm 0 W/m2
22:24 4.3 °C 2.2 °C 1033.7 hPa SSW 1.8 km/h 6.4 km/h 86% 0 mm 0 W/m2
22:29 4.3 °C 2.2 °C 1033.7 hPa SSW 1.4 km/h 4.8 km/h 86% 0 mm 0 W/m2
22:34 4.3 °C 2.2 °C 1033.7 hPa SSW 1.3 km/h 4.8 km/h 86% 0 mm 0 W/m2
22:39 4.2 °C 2.1 °C 1033.7 hPa SSW 0.3 km/h 4.8 km/h 86% 0 mm 0 W/m2
22:44 4.2 °C 2.1 °C 1033.7 hPa SSW 2.7 km/h 6.4 km/h 86% 0 mm 0 W/m2
22:49 4.3 °C 2.2 °C 1033.7 hPa SSW 1.6 km/h 4.8 km/h 86% 0 mm 0 W/m2
22:54 4.3 °C 2.2 °C 1033.7 hPa SSW 1 km/h 6.4 km/h 86% 0 mm 0 W/m2
22:59 4.3 °C 2.2 °C 1033.7 hPa SSW 2.6 km/h 6.4 km/h 86% 0 mm 0 W/m2
23:04 4.3 °C 2.2 °C 1033.7 hPa SSW 2.7 km/h 8 km/h 86% 0 mm 0 W/m2
23:09 4.3 °C 2.2 °C 1033.7 hPa SSW 2.7 km/h 6.4 km/h 86% 0 mm 0 W/m2
23:14 4.3 °C 2.2 °C 1033.7 hPa SSW 2.9 km/h 6.4 km/h 86% 0 mm 0 W/m2
23:19 4.3 °C 2.2 °C 1033.7 hPa SSW 1.3 km/h 8 km/h 86% 0 mm 0 W/m2
23:24 4.3 °C 2.3 °C 1033.7 hPa SSW 2.7 km/h 8 km/h 86% 0 mm 0 W/m2
23:29 4.4 °C 2.3 °C 1033.7 hPa SSW 2.1 km/h 8 km/h 86% 0 mm 0 W/m2
23:34 4.4 °C 2.3 °C 1033.7 hPa SSW 2.3 km/h 6.4 km/h 86% 0 mm 0 W/m2
23:39 4.4 °C 2.3 °C 1033.7 hPa SSW 2.7 km/h 6.4 km/h 86% 0 mm 0 W/m2
23:44 4.4 °C 2.3 °C 1033.7 hPa SSW 0.6 km/h 4.8 km/h 86% 0 mm 0 W/m2
23:49 4.4 °C 2.3 °C 1033.7 hPa SSW 2.6 km/h 4.8 km/h 86% 0 mm 0 W/m2
23:54 4.3 °C 2.2 °C 1033.4 hPa SSW 3.5 km/h 6.4 km/h 86% 0 mm 0 W/m2
23:59 4.3 °C 2.2 °C 1033.4 hPa SSW 2.7 km/h 6.4 km/h 86% 0 mm 0 W/m2
Bath Spa Weather
Compliments of Weather Underground - 2 mb